Russels Point, Indiana
Current Conditions -  °F | °C
As of 6:15 AM on Monday 20 Oct 2014 (Local Time) from KANQ Reporting Station
Overcast Overcast  
Wind Chill: 43°   Ceiling: 7000
Heat Index: 46°   Visibility: 10mi
Dew Point: 37°   Wind: 7mph
Humidity: 71%   Direction: 210°SSW
Pressure: 29.87"   Gusts: NA
Location:  41.5557°N, 84.8806°W
Report Text: KANQ 201015Z AUTO 21006KT 10SM OVC070 08/03 A2987 RMK
Loading
Personal Weather Stations






























Interactive Weather Map
Tropical Storm Tracking
New forecast layout! Learn more

10-Day Weather Forecast

Advertisements
Track Severe Weather on mobile